sensor_id;sensor_type;location;lat;lon;timestamp;temperature;humidity
20337;DHT22;10326;53.660;10.200;2023-08-07T00:05:30;19.20;92.20
20337;DHT22;10326;53.660;10.200;2023-08-07T00:28:06;19.10;92.00
20337;DHT22;10326;53.660;10.200;2023-08-07T00:35:02;19.10;91.90
20337;DHT22;10326;53.660;10.200;2023-08-07T00:37:42;19.10;91.90
20337;DHT22;10326;53.660;10.200;2023-08-07T00:40:38;19.00;91.90
20337;DHT22;10326;53.660;10.200;2023-08-07T00:46:23;19.00;91.80
20337;DHT22;10326;53.660;10.200;2023-08-07T00:48:57;19.00;91.90
20337;DHT22;10326;53.660;10.200;2023-08-07T00:52:10;19.00;91.80
20337;DHT22;10326;53.660;10.200;2023-08-07T00:55:26;19.00;91.70
20337;DHT22;10326;53.660;10.200;2023-08-07T00:58:09;18.90;91.70
20337;DHT22;10326;53.660;10.200;2023-08-07T01:08:08;18.90;91.50
20337;DHT22;10326;53.660;10.200;2023-08-07T01:10:44;18.90;91.60
20337;DHT22;10326;53.660;10.200;2023-08-07T01:17:35;18.80;91.50
20337;DHT22;10326;53.660;10.200;2023-08-07T01:23:55;18.80;91.60
20337;DHT22;10326;53.660;10.200;2023-08-07T01:26:45;18.80;91.50
20337;DHT22;10326;53.660;10.200;2023-08-07T01:29:26;18.70;91.50
20337;DHT22;10326;53.660;10.200;2023-08-07T01:36:18;18.70;91.50
20337;DHT22;10326;53.660;10.200;2023-08-07T01:39:36;18.70;91.60
20337;DHT22;10326;53.660;10.200;2023-08-07T01:45:43;18.60;91.60
20337;DHT22;10326;53.660;10.200;2023-08-07T01:48:12;18.60;91.60
20337;DHT22;10326;53.660;10.200;2023-08-07T01:50:42;18.60;91.60
20337;DHT22;10326;53.660;10.200;2023-08-07T02:02:43;18.60;91.60
20337;DHT22;10326;53.660;10.200;2023-08-07T02:05:14;18.60;91.50
20337;DHT22;10326;53.660;10.200;2023-08-07T02:07:51;18.60;91.50
20337;DHT22;10326;53.660;10.200;2023-08-07T02:14:40;18.50;91.40
20337;DHT22;10326;53.660;10.200;2023-08-07T02:17:09;18.50;91.40
20337;DHT22;10326;53.660;10.200;2023-08-07T02:19:54;18.50;91.40
20337;DHT22;10326;53.660;10.200;2023-08-07T02:22:25;18.40;91.40
20337;DHT22;10326;53.660;10.200;2023-08-07T02:29:13;18.40;91.50
20337;DHT22;10326;53.660;10.200;2023-08-07T02:45:24;18.20;91.70
20337;DHT22;10326;53.660;10.200;2023-08-07T02:48:16;18.20;91.50
20337;DHT22;10326;53.660;10.200;2023-08-07T02:50:49;18.20;91.50
20337;DHT22;10326;53.660;10.200;2023-08-07T02:53:42;18.20;91.50
20337;DHT22;10326;53.660;10.200;2023-08-07T02:56:37;18.20;91.70
20337;DHT22;10326;53.660;10.200;2023-08-07T02:59:08;18.20;91.60
20337;DHT22;10326;53.660;10.200;2023-08-07T03:01:53;18.20;91.50
20337;DHT22;10326;53.660;10.200;2023-08-07T03:04:35;18.20;91.50
20337;DHT22;10326;53.660;10.200;2023-08-07T03:08:20;18.20;91.50
20337;DHT22;10326;53.660;10.200;2023-08-07T03:10:53;18.20;91.50
20337;DHT22;10326;53.660;10.200;2023-08-07T03:18:19;18.10;91.50
20337;DHT22;10326;53.660;10.200;2023-08-07T03:21:21;18.10;91.50
20337;DHT22;10326;53.660;10.200;2023-08-07T03:24:31;18.10;91.60
20337;DHT22;10326;53.660;10.200;2023-08-07T03:27:00;18.10;91.50
20337;DHT22;10326;53.660;10.200;2023-08-07T03:29:27;18.10;91.60
20337;DHT22;10326;53.660;10.200;2023-08-07T03:31:57;18.10;91.60
20337;DHT22;10326;53.660;10.200;2023-08-07T03:34:27;18.10;91.60
20337;DHT22;10326;53.660;10.200;2023-08-07T03:36:56;18.10;91.90
20337;DHT22;10326;53.660;10.200;2023-08-07T03:39:47;18.10;91.60
20337;DHT22;10326;53.660;10.200;2023-08-07T03:42:15;18.10;91.60
20337;DHT22;10326;53.660;10.200;2023-08-07T03:44:49;18.10;91.60
20337;DHT22;10326;53.660;10.200;2023-08-07T03:47:38;18.10;91.70
20337;DHT22;10326;53.660;10.200;2023-08-07T03:50:35;18.10;91.70
20337;DHT22;10326;53.660;10.200;2023-08-07T03:53:11;18.10;91.70
20337;DHT22;10326;53.660;10.200;2023-08-07T03:59:05;18.10;91.80
20337;DHT22;10326;53.660;10.200;2023-08-07T04:01:33;18.10;91.80
20337;DHT22;10326;53.660;10.200;2023-08-07T04:04:34;18.10;91.80
20337;DHT22;10326;53.660;10.200;2023-08-07T04:07:37;18.10;91.90
20337;DHT22;10326;53.660;10.200;2023-08-07T04:13:28;18.10;92.00
20337;DHT22;10326;53.660;10.200;2023-08-07T04:15:58;18.10;92.00
20337;DHT22;10326;53.660;10.200;2023-08-07T04:21:57;18.10;92.20
20337;DHT22;10326;53.660;10.200;2023-08-07T04:24:51;18.10;92.20
20337;DHT22;10326;53.660;10.200;2023-08-07T04:27:32;18.10;92.30
20337;DHT22;10326;53.660;10.200;2023-08-07T04:31:12;18.10;92.30
20337;DHT22;10326;53.660;10.200;2023-08-07T04:34:48;18.20;92.30
20337;DHT22;10326;53.660;10.200;2023-08-07T04:37:16;18.20;92.50
20337;DHT22;10326;53.660;10.200;2023-08-07T04:39:48;18.20;92.40
20337;DHT22;10326;53.660;10.200;2023-08-07T04:42:37;18.20;92.50
20337;DHT22;10326;53.660;10.200;2023-08-07T04:45:05;18.20;92.50
20337;DHT22;10326;53.660;10.200;2023-08-07T04:47:35;18.20;92.60
20337;DHT22;10326;53.660;10.200;2023-08-07T04:50:10;18.20;92.70
20337;DHT22;10326;53.660;10.200;2023-08-07T04:52:42;18.20;92.80
20337;DHT22;10326;53.660;10.200;2023-08-07T04:55:21;18.20;92.70
20337;DHT22;10326;53.660;10.200;2023-08-07T04:57:53;18.20;92.90
20337;DHT22;10326;53.660;10.200;2023-08-07T05:01:28;18.20;92.90
20337;DHT22;10326;53.660;10.200;2023-08-07T05:04:15;18.30;92.80
20337;DHT22;10326;53.660;10.200;2023-08-07T05:07:11;18.30;93.00
20337;DHT22;10326;53.660;10.200;2023-08-07T05:09:39;18.30;93.30
20337;DHT22;10326;53.660;10.200;2023-08-07T05:12:10;18.30;92.90
20337;DHT22;10326;53.660;10.200;2023-08-07T05:14:39;18.30;93.00
20337;DHT22;10326;53.660;10.200;2023-08-07T05:17:06;18.30;93.00
20337;DHT22;10326;53.660;10.200;2023-08-07T05:23:41;18.30;93.20
20337;DHT22;10326;53.660;10.200;2023-08-07T05:29:12;18.40;93.20
20337;DHT22;10326;53.660;10.200;2023-08-07T05:35:02;18.40;93.20
20337;DHT22;10326;53.660;10.200;2023-08-07T05:37:32;18.40;93.10
20337;DHT22;10326;53.660;10.200;2023-08-07T05:40:00;18.50;93.10
20337;DHT22;10326;53.660;10.200;2023-08-07T05:42:42;18.40;93.10
20337;DHT22;10326;53.660;10.200;2023-08-07T05:45:11;18.50;93.20
20337;DHT22;10326;53.660;10.200;2023-08-07T05:47:38;18.50;93.10
20337;DHT22;10326;53.660;10.200;2023-08-07T05:50:07;18.50;93.10
20337;DHT22;10326;53.660;10.200;2023-08-07T05:52:35;18.50;93.10
20337;DHT22;10326;53.660;10.200;2023-08-07T05:55:03;18.50;93.10
20337;DHT22;10326;53.660;10.200;2023-08-07T05:57:30;18.50;93.00
20337;DHT22;10326;53.660;10.200;2023-08-07T06:00:01;18.50;92.90
20337;DHT22;10326;53.660;10.200;2023-08-07T06:02:39;18.60;92.90
20337;DHT22;10326;53.660;10.200;2023-08-07T06:05:07;18.60;92.90
20337;DHT22;10326;53.660;10.200;2023-08-07T06:07:51;18.60;92.90
20337;DHT22;10326;53.660;10.200;2023-08-07T06:10:29;18.60;92.90
20337;DHT22;10326;53.660;10.200;2023-08-07T06:13:03;18.60;92.70
20337;DHT22;10326;53.660;10.200;2023-08-07T06:15:32;18.70;92.60
20337;DHT22;10326;53.660;10.200;2023-08-07T06:18:01;18.70;92.60
20337;DHT22;10326;53.660;10.200;2023-08-07T06:20:29;18.70;92.60
20337;DHT22;10326;53.660;10.200;2023-08-07T06:22:57;18.70;92.60
20337;DHT22;10326;53.660;10.200;2023-08-07T06:25:24;18.70;92.50
20337;DHT22;10326;53.660;10.200;2023-08-07T06:27:51;18.70;92.50
20337;DHT22;10326;53.660;10.200;2023-08-07T06:30:19;18.80;92.30
20337;DHT22;10326;53.660;10.200;2023-08-07T06:32:54;18.80;92.30
20337;DHT22;10326;53.660;10.200;2023-08-07T06:35:25;18.80;92.30
20337;DHT22;10326;53.660;10.200;2023-08-07T06:37:52;18.80;92.10
20337;DHT22;10326;53.660;10.200;2023-08-07T06:40:20;18.80;92.10
20337;DHT22;10326;53.660;10.200;2023-08-07T06:42:48;18.80;92.00
20337;DHT22;10326;53.660;10.200;2023-08-07T06:45:25;18.90;92.10
20337;DHT22;10326;53.660;10.200;2023-08-07T06:47:53;18.90;91.90
20337;DHT22;10326;53.660;10.200;2023-08-07T06:50:23;18.90;91.90
20337;DHT22;10326;53.660;10.200;2023-08-07T06:52:52;18.90;92.00
20337;DHT22;10326;53.660;10.200;2023-08-07T06:55:31;18.90;91.90
20337;DHT22;10326;53.660;10.200;2023-08-07T06:57:58;19.00;91.80
20337;DHT22;10326;53.660;10.200;2023-08-07T07:00:26;19.00;91.80
20337;DHT22;10326;53.660;10.200;2023-08-07T07:02:55;19.00;91.80
20337;DHT22;10326;53.660;10.200;2023-08-07T07:05:23;19.00;91.70
20337;DHT22;10326;53.660;10.200;2023-08-07T07:07:52;19.00;91.70
20337;DHT22;10326;53.660;10.200;2023-08-07T07:13:04;19.00;91.30
20337;DHT22;10326;53.660;10.200;2023-08-07T07:15:34;19.00;91.20
20337;DHT22;10326;53.660;10.200;2023-08-07T07:18:01;19.10;91.20
20337;DHT22;10326;53.660;10.200;2023-08-07T07:20:28;19.00;91.10
20337;DHT22;10326;53.660;10.200;2023-08-07T07:22:57;19.00;91.10
20337;DHT22;10326;53.660;10.200;2023-08-07T07:25:24;19.00;91.10
20337;DHT22;10326;53.660;10.200;2023-08-07T07:27:51;19.00;91.10
20337;DHT22;10326;53.660;10.200;2023-08-07T07:30:19;19.10;91.20
20337;DHT22;10326;53.660;10.200;2023-08-07T07:32:47;19.10;90.90
20337;DHT22;10326;53.660;10.200;2023-08-07T07:35:16;19.10;90.80
20337;DHT22;10326;53.660;10.200;2023-08-07T07:37:43;19.10;90.60
20337;DHT22;10326;53.660;10.200;2023-08-07T07:40:12;19.10;90.70
20337;DHT22;10326;53.660;10.200;2023-08-07T07:42:40;19.10;90.50
20337;DHT22;10326;53.660;10.200;2023-08-07T07:45:07;19.10;90.40
20337;DHT22;10326;53.660;10.200;2023-08-07T07:47:35;19.10;90.40
20337;DHT22;10326;53.660;10.200;2023-08-07T07:50:07;19.10;90.40
20337;DHT22;10326;53.660;10.200;2023-08-07T07:52:36;19.10;90.40
20337;DHT22;10326;53.660;10.200;2023-08-07T07:55:04;19.20;90.40
20337;DHT22;10326;53.660;10.200;2023-08-07T07:57:33;19.20;90.50
20337;DHT22;10326;53.660;10.200;2023-08-07T08:00:00;19.20;90.30
20337;DHT22;10326;53.660;10.200;2023-08-07T08:02:37;19.20;90.40
20337;DHT22;10326;53.660;10.200;2023-08-07T08:05:05;19.20;90.40
20337;DHT22;10326;53.660;10.200;2023-08-07T08:07:33;19.20;90.30
20337;DHT22;10326;53.660;10.200;2023-08-07T08:10:01;19.20;90.30
20337;DHT22;10326;53.660;10.200;2023-08-07T08:12:30;19.20;90.30
20337;DHT22;10326;53.660;10.200;2023-08-07T08:15:00;19.30;90.40
20337;DHT22;10326;53.660;10.200;2023-08-07T08:17:27;19.30;90.30
20337;DHT22;10326;53.660;10.200;2023-08-07T08:19:54;19.30;90.20
20337;DHT22;10326;53.660;10.200;2023-08-07T08:22:22;19.30;90.10
20337;DHT22;10326;53.660;10.200;2023-08-07T08:24:49;19.30;89.70
20337;DHT22;10326;53.660;10.200;2023-08-07T08:27:17;19.30;89.80
20337;DHT22;10326;53.660;10.200;2023-08-07T08:29:44;19.30;90.00
20337;DHT22;10326;53.660;10.200;2023-08-07T08:32:13;19.20;90.00
20337;DHT22;10326;53.660;10.200;2023-08-07T08:34:40;19.20;90.30
20337;DHT22;10326;53.660;10.200;2023-08-07T08:37:18;19.20;90.20
20337;DHT22;10326;53.660;10.200;2023-08-07T08:39:46;19.10;90.20
20337;DHT22;10326;53.660;10.200;2023-08-07T08:42:14;19.20;90.30
20337;DHT22;10326;53.660;10.200;2023-08-07T08:44:48;19.10;90.30
20337;DHT22;10326;53.660;10.200;2023-08-07T08:47:21;19.20;90.10
20337;DHT22;10326;53.660;10.200;2023-08-07T08:50:02;19.20;90.00
20337;DHT22;10326;53.660;10.200;2023-08-07T08:52:32;19.20;89.90
20337;DHT22;10326;53.660;10.200;2023-08-07T08:54:59;19.20;89.90
20337;DHT22;10326;53.660;10.200;2023-08-07T08:57:30;19.20;89.70
20337;DHT22;10326;53.660;10.200;2023-08-07T09:00:00;19.20;89.50
20337;DHT22;10326;53.660;10.200;2023-08-07T09:02:36;19.10;89.30
20337;DHT22;10326;53.660;10.200;2023-08-07T09:05:04;19.10;89.30
20337;DHT22;10326;53.660;10.200;2023-08-07T09:07:32;19.00;89.80
20337;DHT22;10326;53.660;10.200;2023-08-07T09:10:02;19.00;89.80
20337;DHT22;10326;53.660;10.200;2023-08-07T09:12:32;19.00;89.90
20337;DHT22;10326;53.660;10.200;2023-08-07T09:15:02;18.90;89.90
20337;DHT22;10326;53.660;10.200;2023-08-07T09:17:33;19.00;90.00
20337;DHT22;10326;53.660;10.200;2023-08-07T09:20:06;18.90;90.00
20337;DHT22;10326;53.660;10.200;2023-08-07T09:22:37;18.90;90.10
20337;DHT22;10326;53.660;10.200;2023-08-07T09:25:06;18.90;90.40
20337;DHT22;10326;53.660;10.200;2023-08-07T09:27:36;19.00;90.20
20337;DHT22;10326;53.660;10.200;2023-08-07T09:30:06;19.00;90.40
20337;DHT22;10326;53.660;10.200;2023-08-07T09:32:37;19.00;90.40
20337;DHT22;10326;53.660;10.200;2023-08-07T09:35:07;19.10;90.30
20337;DHT22;10326;53.660;10.200;2023-08-07T09:37:36;19.20;90.20
20337;DHT22;10326;53.660;10.200;2023-08-07T09:40:05;19.20;90.10
20337;DHT22;10326;53.660;10.200;2023-08-07T09:42:36;19.20;90.30
20337;DHT22;10326;53.660;10.200;2023-08-07T09:45:18;19.20;90.30
20337;DHT22;10326;53.660;10.200;2023-08-07T09:47:56;19.20;90.20
20337;DHT22;10326;53.660;10.200;2023-08-07T09:50:25;19.10;90.10
20337;DHT22;10326;53.660;10.200;2023-08-07T09:52:53;19.00;90.20
20337;DHT22;10326;53.660;10.200;2023-08-07T09:55:21;19.00;90.40
20337;DHT22;10326;53.660;10.200;2023-08-07T09:57:49;18.90;90.50
20337;DHT22;10326;53.660;10.200;2023-08-07T10:00:17;18.90;90.60
20337;DHT22;10326;53.660;10.200;2023-08-07T10:02:48;18.90;90.70
20337;DHT22;10326;53.660;10.200;2023-08-07T10:05:16;18.90;90.50
20337;DHT22;10326;53.660;10.200;2023-08-07T10:07:44;18.90;90.50
20337;DHT22;10326;53.660;10.200;2023-08-07T10:10:12;18.90;90.50
20337;DHT22;10326;53.660;10.200;2023-08-07T10:12:39;19.00;90.10
20337;DHT22;10326;53.660;10.200;2023-08-07T10:15:14;19.00;89.80
20337;DHT22;10326;53.660;10.200;2023-08-07T10:17:42;19.10;88.70
20337;DHT22;10326;53.660;10.200;2023-08-07T10:20:11;19.10;88.80
20337;DHT22;10326;53.660;10.200;2023-08-07T10:22:41;19.20;87.20
20337;DHT22;10326;53.660;10.200;2023-08-07T10:25:09;19.20;87.70
20337;DHT22;10326;53.660;10.200;2023-08-07T10:27:40;19.20;87.50
20337;DHT22;10326;53.660;10.200;2023-08-07T10:30:11;19.30;87.00
20337;DHT22;10326;53.660;10.200;2023-08-07T10:32:40;19.40;86.80
20337;DHT22;10326;53.660;10.200;2023-08-07T10:35:08;19.40;86.50
20337;DHT22;10326;53.660;10.200;2023-08-07T10:37:40;19.50;86.70
20337;DHT22;10326;53.660;10.200;2023-08-07T10:40:12;19.60;85.90
20337;DHT22;10326;53.660;10.200;2023-08-07T10:42:59;19.60;85.60
20337;DHT22;10326;53.660;10.200;2023-08-07T10:45:28;19.70;84.60
20337;DHT22;10326;53.660;10.200;2023-08-07T10:48:06;19.70;85.20
20337;DHT22;10326;53.660;10.200;2023-08-07T10:50:35;19.80;84.30
20337;DHT22;10326;53.660;10.200;2023-08-07T10:53:27;19.80;85.80
20337;DHT22;10326;53.660;10.200;2023-08-07T10:55:55;19.80;84.00
20337;DHT22;10326;53.660;10.200;2023-08-07T10:58:25;19.80;84.10
20337;DHT22;10326;53.660;10.200;2023-08-07T11:01:18;19.80;83.90
20337;DHT22;10326;53.660;10.200;2023-08-07T11:03:48;19.80;83.80
20337;DHT22;10326;53.660;10.200;2023-08-07T11:06:17;19.80;83.90
20337;DHT22;10326;53.660;10.200;2023-08-07T11:08:48;19.80;83.50
20337;DHT22;10326;53.660;10.200;2023-08-07T11:11:16;19.80;83.70
20337;DHT22;10326;53.660;10.200;2023-08-07T11:13:43;19.80;82.90
20337;DHT22;10326;53.660;10.200;2023-08-07T11:16:12;19.80;83.20
20337;DHT22;10326;53.660;10.200;2023-08-07T11:18:40;19.80;82.70
20337;DHT22;10326;53.660;10.200;2023-08-07T11:21:07;19.90;82.70
20337;DHT22;10326;53.660;10.200;2023-08-07T11:23:36;19.90;82.80
20337;DHT22;10326;53.660;10.200;2023-08-07T11:26:05;20.00;83.70
20337;DHT22;10326;53.660;10.200;2023-08-07T11:28:33;20.00;83.00
20337;DHT22;10326;53.660;10.200;2023-08-07T11:31:01;20.10;82.90
20337;DHT22;10326;53.660;10.200;2023-08-07T11:33:29;20.10;82.70
20337;DHT22;10326;53.660;10.200;2023-08-07T11:35:57;20.00;82.80
20337;DHT22;10326;53.660;10.200;2023-08-07T11:38:31;20.10;82.70
20337;DHT22;10326;53.660;10.200;2023-08-07T11:41:00;20.00;81.50
20337;DHT22;10326;53.660;10.200;2023-08-07T11:43:30;20.00;82.30
20337;DHT22;10326;53.660;10.200;2023-08-07T11:46:01;20.10;81.80
20337;DHT22;10326;53.660;10.200;2023-08-07T11:48:32;20.10;81.80
20337;DHT22;10326;53.660;10.200;2023-08-07T11:51:02;20.10;80.20
20337;DHT22;10326;53.660;10.200;2023-08-07T11:53:32;20.10;79.80
20337;DHT22;10326;53.660;10.200;2023-08-07T11:56:03;20.10;81.00
20337;DHT22;10326;53.660;10.200;2023-08-07T11:58:36;20.10;81.00
20337;DHT22;10326;53.660;10.200;2023-08-07T12:01:04;20.10;80.20
20337;DHT22;10326;53.660;10.200;2023-08-07T12:03:34;20.10;79.90
20337;DHT22;10326;53.660;10.200;2023-08-07T12:06:05;20.00;79.50
20337;DHT22;10326;53.660;10.200;2023-08-07T12:08:34;20.00;80.20
20337;DHT22;10326;53.660;10.200;2023-08-07T12:11:03;20.00;80.20
20337;DHT22;10326;53.660;10.200;2023-08-07T12:13:31;20.00;80.20
20337;DHT22;10326;53.660;10.200;2023-08-07T12:16:02;20.10;80.00
20337;DHT22;10326;53.660;10.200;2023-08-07T12:18:30;20.10;80.20
20337;DHT22;10326;53.660;10.200;2023-08-07T12:20:59;20.10;80.50
20337;DHT22;10326;53.660;10.200;2023-08-07T12:23:27;20.10;80.80
20337;DHT22;10326;53.660;10.200;2023-08-07T12:25:54;20.10;81.20
20337;DHT22;10326;53.660;10.200;2023-08-07T12:28:22;20.10;81.40
20337;DHT22;10326;53.660;10.200;2023-08-07T12:30:51;20.10;80.20
20337;DHT22;10326;53.660;10.200;2023-08-07T12:33:19;20.10;80.00
20337;DHT22;10326;53.660;10.200;2023-08-07T12:35:46;20.10;80.30
20337;DHT22;10326;53.660;10.200;2023-08-07T12:38:14;20.10;80.30
20337;DHT22;10326;53.660;10.200;2023-08-07T12:40:41;20.10;80.20
20337;DHT22;10326;53.660;10.200;2023-08-07T12:43:09;20.10;80.80
20337;DHT22;10326;53.660;10.200;2023-08-07T12:45:37;20.10;81.60
20337;DHT22;10326;53.660;10.200;2023-08-07T12:48:06;20.00;82.30
20337;DHT22;10326;53.660;10.200;2023-08-07T12:50:33;19.90;81.90
20337;DHT22;10326;53.660;10.200;2023-08-07T12:53:00;19.80;81.60
20337;DHT22;10326;53.660;10.200;2023-08-07T12:55:28;19.70;81.60
20337;DHT22;10326;53.660;10.200;2023-08-07T12:57:56;19.70;82.10
20337;DHT22;10326;53.660;10.200;2023-08-07T13:00:24;19.60;81.90
20337;DHT22;10326;53.660;10.200;2023-08-07T13:02:52;19.60;81.90
20337;DHT22;10326;53.660;10.200;2023-08-07T13:05:22;19.60;81.60
20337;DHT22;10326;53.660;10.200;2023-08-07T13:07:49;19.60;80.90
20337;DHT22;10326;53.660;10.200;2023-08-07T13:10:21;19.70;81.10
20337;DHT22;10326;53.660;10.200;2023-08-07T13:12:49;19.70;80.50
20337;DHT22;10326;53.660;10.200;2023-08-07T13:15:17;19.70;80.40
20337;DHT22;10326;53.660;10.200;2023-08-07T13:17:45;19.70;80.40
20337;DHT22;10326;53.660;10.200;2023-08-07T13:20:13;19.70;80.50
20337;DHT22;10326;53.660;10.200;2023-08-07T13:22:43;19.70;81.00
20337;DHT22;10326;53.660;10.200;2023-08-07T13:25:12;19.80;80.60
20337;DHT22;10326;53.660;10.200;2023-08-07T13:27:40;19.80;81.10
20337;DHT22;10326;53.660;10.200;2023-08-07T13:30:08;19.80;80.90
20337;DHT22;10326;53.660;10.200;2023-08-07T13:32:36;19.90;80.40
20337;DHT22;10326;53.660;10.200;2023-08-07T13:35:04;19.90;80.50
20337;DHT22;10326;53.660;10.200;2023-08-07T13:37:31;19.90;80.50
20337;DHT22;10326;53.660;10.200;2023-08-07T13:40:00;19.90;80.90
20337;DHT22;10326;53.660;10.200;2023-08-07T13:42:30;19.90;81.40
20337;DHT22;10326;53.660;10.200;2023-08-07T13:44:57;19.90;81.40
20337;DHT22;10326;53.660;10.200;2023-08-07T13:47:25;19.90;81.30
20337;DHT22;10326;53.660;10.200;2023-08-07T13:49:52;19.80;80.50
20337;DHT22;10326;53.660;10.200;2023-08-07T13:52:20;19.80;80.50
20337;DHT22;10326;53.660;10.200;2023-08-07T13:54:48;19.80;80.80
20337;DHT22;10326;53.660;10.200;2023-08-07T13:57:16;19.80;80.80
20337;DHT22;10326;53.660;10.200;2023-08-07T13:59:43;19.80;81.00
20337;DHT22;10326;53.660;10.200;2023-08-07T14:02:10;19.70;81.20
20337;DHT22;10326;53.660;10.200;2023-08-07T14:04:38;19.70;80.90
20337;DHT22;10326;53.660;10.200;2023-08-07T14:07:05;19.70;81.70
20337;DHT22;10326;53.660;10.200;2023-08-07T14:09:33;19.60;82.10
20337;DHT22;10326;53.660;10.200;2023-08-07T14:12:02;19.50;82.70
20337;DHT22;10326;53.660;10.200;2023-08-07T14:14:32;19.40;83.10
20337;DHT22;10326;53.660;10.200;2023-08-07T14:16:59;19.30;83.90
20337;DHT22;10326;53.660;10.200;2023-08-07T14:19:27;19.30;83.20
20337;DHT22;10326;53.660;10.200;2023-08-07T14:21:55;19.20;83.30
20337;DHT22;10326;53.660;10.200;2023-08-07T14:24:22;19.10;83.80
20337;DHT22;10326;53.660;10.200;2023-08-07T14:26:50;19.10;83.20
20337;DHT22;10326;53.660;10.200;2023-08-07T14:29:18;19.10;83.20
20337;DHT22;10326;53.660;10.200;2023-08-07T14:31:48;19.20;81.10
20337;DHT22;10326;53.660;10.200;2023-08-07T14:34:15;19.30;79.30
20337;DHT22;10326;53.660;10.200;2023-08-07T14:36:42;19.30;79.40
20337;DHT22;10326;53.660;10.200;2023-08-07T14:39:09;19.40;79.00
20337;DHT22;10326;53.660;10.200;2023-08-07T14:41:37;19.50;78.20
20337;DHT22;10326;53.660;10.200;2023-08-07T14:44:04;19.60;77.00
20337;DHT22;10326;53.660;10.200;2023-08-07T14:46:32;19.70;77.10
20337;DHT22;10326;53.660;10.200;2023-08-07T14:49:01;19.80;76.40
20337;DHT22;10326;53.660;10.200;2023-08-07T14:51:29;19.90;76.10
20337;DHT22;10326;53.660;10.200;2023-08-07T14:53:57;20.00;76.60
20337;DHT22;10326;53.660;10.200;2023-08-07T14:56:24;20.00;76.30
20337;DHT22;10326;53.660;10.200;2023-08-07T14:58:52;20.10;76.50
20337;DHT22;10326;53.660;10.200;2023-08-07T15:01:19;20.10;76.40
20337;DHT22;10326;53.660;10.200;2023-08-07T15:03:47;20.10;76.00
20337;DHT22;10326;53.660;10.200;2023-08-07T15:06:15;20.10;77.00
20337;DHT22;10326;53.660;10.200;2023-08-07T15:08:42;20.00;76.90
20337;DHT22;10326;53.660;10.200;2023-08-07T15:11:10;20.00;76.90
20337;DHT22;10326;53.660;10.200;2023-08-07T15:13:38;19.90;77.50
20337;DHT22;10326;53.660;10.200;2023-08-07T15:16:05;19.80;77.60
20337;DHT22;10326;53.660;10.200;2023-08-07T15:18:33;19.70;77.80
20337;DHT22;10326;53.660;10.200;2023-08-07T15:21:03;19.60;78.10
20337;DHT22;10326;53.660;10.200;2023-08-07T15:23:32;19.50;78.70
20337;DHT22;10326;53.660;10.200;2023-08-07T15:25:59;19.50;79.40
20337;DHT22;10326;53.660;10.200;2023-08-07T15:28:27;19.40;79.60
20337;DHT22;10326;53.660;10.200;2023-08-07T15:30:54;19.30;79.60
20337;DHT22;10326;53.660;10.200;2023-08-07T15:33:25;19.30;79.80
20337;DHT22;10326;53.660;10.200;2023-08-07T15:35:54;19.20;80.20
20337;DHT22;10326;53.660;10.200;2023-08-07T15:38:21;19.20;80.70
20337;DHT22;10326;53.660;10.200;2023-08-07T15:40:50;19.20;80.90
20337;DHT22;10326;53.660;10.200;2023-08-07T15:43:18;19.20;80.90
20337;DHT22;10326;53.660;10.200;2023-08-07T15:45:45;19.20;80.70
20337;DHT22;10326;53.660;10.200;2023-08-07T15:48:13;19.20;81.30
20337;DHT22;10326;53.660;10.200;2023-08-07T15:50:40;19.10;80.90
20337;DHT22;10326;53.660;10.200;2023-08-07T15:53:08;19.10;81.30
20337;DHT22;10326;53.660;10.200;2023-08-07T15:55:35;19.10;81.50
20337;DHT22;10326;53.660;10.200;2023-08-07T15:58:06;19.00;81.40
20337;DHT22;10326;53.660;10.200;2023-08-07T16:00:56;19.00;81.00
20337;DHT22;10326;53.660;10.200;2023-08-07T16:03:23;19.00;81.30
20337;DHT22;10326;53.660;10.200;2023-08-07T16:05:51;19.00;81.10
20337;DHT22;10326;53.660;10.200;2023-08-07T16:08:18;19.00;80.90
20337;DHT22;10326;53.660;10.200;2023-08-07T16:10:45;19.00;80.90
20337;DHT22;10326;53.660;10.200;2023-08-07T16:13:14;19.10;81.10
20337;DHT22;10326;53.660;10.200;2023-08-07T16:15:41;19.10;80.60
20337;DHT22;10326;53.660;10.200;2023-08-07T16:18:08;19.10;80.40
20337;DHT22;10326;53.660;10.200;2023-08-07T16:20:35;19.10;80.50
20337;DHT22;10326;53.660;10.200;2023-08-07T16:23:04;19.20;80.00
20337;DHT22;10326;53.660;10.200;2023-08-07T16:25:33;19.20;80.00
20337;DHT22;10326;53.660;10.200;2023-08-07T16:28:01;19.20;79.40
20337;DHT22;10326;53.660;10.200;2023-08-07T16:30:31;19.20;79.10
20337;DHT22;10326;53.660;10.200;2023-08-07T16:32:58;19.20;78.80
20337;DHT22;10326;53.660;10.200;2023-08-07T16:35:26;19.20;78.20
20337;DHT22;10326;53.660;10.200;2023-08-07T16:37:53;19.20;76.90
20337;DHT22;10326;53.660;10.200;2023-08-07T16:40:21;19.20;77.00
20337;DHT22;10326;53.660;10.200;2023-08-07T16:42:48;19.20;76.60
20337;DHT22;10326;53.660;10.200;2023-08-07T16:45:15;19.20;76.90
20337;DHT22;10326;53.660;10.200;2023-08-07T16:47:44;19.20;77.40
20337;DHT22;10326;53.660;10.200;2023-08-07T16:50:11;19.20;77.70
20337;DHT22;10326;53.660;10.200;2023-08-07T16:52:38;19.20;78.00
20337;DHT22;10326;53.660;10.200;2023-08-07T16:55:07;19.30;78.40
20337;DHT22;10326;53.660;10.200;2023-08-07T16:57:34;19.30;78.40
20337;DHT22;10326;53.660;10.200;2023-08-07T17:00:03;19.30;78.50
20337;DHT22;10326;53.660;10.200;2023-08-07T17:02:32;19.30;78.50
20337;DHT22;10326;53.660;10.200;2023-08-07T17:05:01;19.30;78.60
20337;DHT22;10326;53.660;10.200;2023-08-07T17:07:29;19.30;77.50
20337;DHT22;10326;53.660;10.200;2023-08-07T17:09:56;19.30;76.50
20337;DHT22;10326;53.660;10.200;2023-08-07T17:12:24;19.30;76.60
20337;DHT22;10326;53.660;10.200;2023-08-07T17:14:51;19.30;76.80
20337;DHT22;10326;53.660;10.200;2023-08-07T17:17:19;19.30;76.10
20337;DHT22;10326;53.660;10.200;2023-08-07T17:19:46;19.30;76.10
20337;DHT22;10326;53.660;10.200;2023-08-07T17:22:15;19.30;75.90
20337;DHT22;10326;53.660;10.200;2023-08-07T17:24:42;19.30;76.00
20337;DHT22;10326;53.660;10.200;2023-08-07T17:27:09;19.30;75.60
20337;DHT22;10326;53.660;10.200;2023-08-07T17:29:37;19.20;75.20
20337;DHT22;10326;53.660;10.200;2023-08-07T17:32:05;19.20;74.80
20337;DHT22;10326;53.660;10.200;2023-08-07T17:34:32;19.10;75.00
20337;DHT22;10326;53.660;10.200;2023-08-07T17:37:00;19.10;75.50
20337;DHT22;10326;53.660;10.200;2023-08-07T17:39:28;19.00;75.50